createdAt,value
2019-04-16T00:01:08.139Z,48.57
2019-04-16T00:03:38.903Z,48.90
2019-04-16T00:06:14.814Z,49.28
2019-04-16T00:08:50.063Z,49.01
2019-04-16T00:11:24.564Z,49.24
2019-04-16T00:13:57.954Z,49.37
2019-04-16T00:16:26.743Z,49.36
2019-04-16T00:18:58.050Z,49.58
2019-04-16T00:21:51.186Z,49.15
2019-04-16T00:24:24.505Z,49.58
2019-04-16T00:26:58.070Z,49.55
2019-04-16T00:29:24.893Z,49.57
2019-04-16T00:32:12.605Z,49.70
2019-04-16T00:34:44.504Z,50.12
2019-04-16T00:37:12.283Z,49.73
2019-04-16T00:39:40.973Z,49.42
2019-04-16T00:42:10.426Z,49.44
2019-04-16T00:44:39.135Z,49.08
2019-04-16T00:47:08.205Z,49.65
2019-04-16T00:49:38.049Z,49.15
2019-04-16T00:52:07.406Z,49.31
2019-04-16T00:54:36.176Z,49.09
2019-04-16T00:57:05.184Z,49.10
2019-04-16T00:59:33.955Z,49.49
2019-04-16T01:02:02.799Z,49.74
2019-04-16T01:04:31.550Z,50.10
2019-04-16T01:07:00.497Z,49.92
2019-04-16T01:09:30.090Z,49.77
2019-04-16T01:11:59.166Z,49.82
2019-04-16T01:14:28.105Z,49.67
2019-04-16T01:16:57.163Z,49.79
2019-04-16T01:19:25.920Z,49.99
2019-04-16T01:21:55.192Z,50.22
2019-04-16T01:24:23.949Z,50.76
2019-04-16T01:26:52.625Z,50.21
2019-04-16T01:29:22.059Z,50.22
2019-04-16T01:32:11.381Z,50.29
2019-04-16T01:34:58.620Z,50.37
2019-04-16T01:37:44.908Z,50.37
2019-04-16T01:40:18.446Z,50.75
2019-04-16T01:42:46.337Z,51.20
2019-04-16T01:45:15.068Z,51.81
2019-04-16T01:47:44.244Z,52.49
2019-04-16T01:50:14.084Z,52.26
2019-04-16T01:52:43.041Z,52.03
2019-04-16T01:55:12.052Z,52.18
2019-04-16T01:57:41.003Z,52.38
2019-04-16T02:00:10.810Z,52.12
2019-04-16T02:02:39.783Z,52.76
2019-04-16T02:05:08.854Z,52.66
2019-04-16T02:07:38.840Z,52.76
2019-04-16T02:10:08.126Z,53.46
2019-04-16T02:12:36.945Z,53.57
2019-04-16T02:15:07.525Z,53.12
2019-04-16T02:17:36.237Z,53.24
2019-04-16T02:20:07.467Z,53.22
2019-04-16T02:22:37.028Z,53.72
2019-04-16T02:25:06.228Z,53.36
2019-04-16T02:27:35.153Z,53.49
2019-04-16T02:30:05.682Z,54.07
2019-04-16T02:32:34.530Z,54.37
2019-04-16T02:35:06.024Z,54.12
2019-04-16T02:37:36.346Z,54.58
2019-04-16T02:40:05.515Z,54.42
2019-04-16T02:42:34.538Z,54.66
2019-04-16T02:45:03.760Z,54.29
2019-04-16T02:47:32.525Z,54.13
2019-04-16T02:50:02.178Z,53.82
2019-04-16T02:52:51.061Z,54.08
2019-04-16T02:55:24.904Z,54.53
2019-04-16T02:58:00.095Z,54.87
2019-04-16T03:00:41.102Z,54.67
2019-04-16T03:03:13.620Z,55.01
2019-04-16T03:05:45.492Z,55.50
2019-04-16T03:08:14.367Z,56.00
2019-04-16T03:10:44.611Z,56.11
2019-04-16T03:13:13.869Z,56.80
2019-04-16T03:16:08.919Z,56.84
2019-04-16T03:18:47.552Z,56.93
2019-04-16T03:21:16.621Z,56.88
2019-04-16T03:23:45.358Z,57.19
2019-04-16T03:26:17.592Z,57.22
2019-04-16T03:28:44.718Z,56.63
2019-04-16T03:31:19.500Z,56.82
2019-04-16T03:33:50.578Z,57.17
2019-04-16T03:36:14.670Z,56.73
2019-04-16T03:38:43.841Z,56.63
2019-04-16T03:41:12.759Z,56.66
2019-04-16T03:43:41.487Z,56.92
2019-04-16T03:46:12.772Z,56.95
2019-04-16T03:48:40.902Z,56.85
2019-04-16T03:51:09.603Z,56.89
2019-04-16T03:53:38.318Z,56.65
2019-04-16T03:56:07.075Z,57.11
2019-04-16T03:58:38.628Z,56.77
2019-04-16T04:01:06.508Z,56.73
2019-04-16T04:03:35.209Z,57.19
2019-04-16T04:06:06.850Z,57.11
2019-04-16T04:08:34.329Z,57.04
2019-04-16T04:11:03.011Z,57.10
2019-04-16T04:13:31.702Z,57.56
2019-04-16T04:16:01.630Z,57.21
2019-04-16T04:18:31.190Z,57.07
2019-04-16T04:20:59.880Z,57.93
2019-04-16T04:23:29.409Z,57.51
2019-04-16T04:25:58.203Z,57.15
2019-04-16T04:28:26.939Z,56.96
2019-04-16T04:30:57.700Z,57.24
2019-04-16T04:33:40.373Z,57.38
2019-04-16T04:36:08.397Z,57.00
2019-04-16T04:38:38.499Z,57.64
2019-04-16T04:41:07.863Z,57.83
2019-04-16T04:43:37.174Z,57.76
2019-04-16T04:46:06.150Z,58.17
2019-04-16T04:48:34.924Z,57.97
2019-04-16T04:51:07.242Z,58.01
2019-04-16T04:53:34.227Z,57.36
2019-04-16T04:56:02.908Z,57.89
2019-04-16T04:58:34.102Z,58.78
2019-04-16T05:01:02.548Z,57.96
2019-04-16T05:03:53.549Z,58.04
2019-04-16T05:06:27.817Z,57.46
2019-04-16T05:08:57.550Z,57.84
2019-04-16T05:11:27.477Z,57.73
2019-04-16T05:13:57.023Z,57.84
2019-04-16T05:16:25.843Z,57.96
2019-04-16T05:18:54.855Z,57.63
2019-04-16T05:21:23.539Z,57.74
2019-04-16T05:23:57.024Z,58.07
2019-04-16T05:26:23.113Z,58.12
2019-04-16T05:28:51.911Z,58.55
2019-04-16T05:31:24.557Z,58.50
2019-04-16T05:33:51.309Z,58.94
2019-04-16T05:36:21.571Z,58.90
2019-04-16T05:38:55.529Z,59.00
2019-04-16T05:41:22.802Z,58.79
2019-04-16T05:43:51.748Z,59.02
2019-04-16T05:46:20.434Z,59.07
2019-04-16T05:48:51.386Z,59.46
2019-04-16T05:51:19.790Z,59.25
2019-04-16T05:53:52.237Z,59.08
2019-04-16T05:56:35.551Z,58.64
2019-04-16T05:59:04.295Z,59.00
2019-04-16T06:01:38.045Z,59.36
2019-04-16T06:04:06.808Z,58.92
2019-04-16T06:06:35.574Z,59.38
2019-04-16T06:09:11.912Z,58.94
2019-04-16T06:11:37.679Z,58.37
2019-04-16T06:14:26.237Z,58.43
2019-04-16T06:17:08.557Z,57.99
2019-04-16T06:19:46.752Z,58.22
2019-04-16T06:22:22.205Z,58.12
2019-04-16T06:25:10.859Z,58.22
2019-04-16T06:27:56.680Z,58.50
2019-04-16T06:30:45.346Z,57.85
2019-04-16T06:33:17.678Z,57.58
2019-04-16T06:36:05.964Z,56.81
2019-04-16T06:38:42.837Z,57.27
2019-04-16T06:41:41.197Z,57.11
2019-04-16T06:43:59.673Z,57.12
2019-04-16T06:46:47.951Z,56.78
2019-04-16T06:49:30.890Z,57.06
2019-04-16T06:52:18.125Z,56.93
2019-04-16T06:55:05.130Z,56.31
2019-04-16T06:57:51.535Z,56.03
2019-04-16T07:00:45.046Z,56.40
2019-04-16T07:03:32.620Z,56.38
2019-04-16T07:06:29.466Z,56.39
2019-04-16T07:09:05.798Z,55.45
2019-04-16T07:11:34.886Z,55.17
2019-04-16T07:14:03.771Z,55.18
2019-04-16T07:16:32.740Z,54.99
2019-04-16T07:19:01.916Z,54.83
2019-04-16T07:21:30.634Z,54.70
2019-04-16T07:23:59.773Z,55.25
2019-04-16T07:26:28.636Z,55.48
2019-04-16T07:29:14.188Z,53.24
2019-04-16T07:31:53.489Z,54.92
2019-04-16T07:34:35.849Z,53.46
2019-04-16T07:37:38.675Z,53.65
2019-04-16T07:40:32.503Z,53.94
2019-04-16T07:43:16.346Z,52.63
2019-04-16T07:45:52.107Z,52.13
2019-04-16T07:48:28.270Z,52.63
2019-04-16T07:51:05.554Z,51.76
2019-04-16T07:53:52.463Z,52.50
2019-04-16T07:56:23.813Z,52.36
2019-04-16T07:58:52.518Z,52.06
2019-04-16T08:01:21.513Z,51.37
2019-04-16T08:03:51.969Z,50.77
2019-04-16T08:06:20.772Z,51.59
2019-04-16T08:08:49.870Z,51.32
2019-04-16T08:11:18.829Z,51.83
2019-04-16T08:13:47.546Z,50.60
2019-04-16T08:16:16.295Z,51.25
2019-04-16T08:18:49.466Z,51.02
2019-04-16T08:21:18.199Z,50.10
2019-04-16T08:23:53.849Z,51.79
2019-04-16T08:26:22.890Z,50.84
2019-04-16T08:28:51.579Z,49.10
2019-04-16T08:31:23.830Z,50.05
2019-04-16T08:33:52.586Z,50.78
2019-04-16T08:36:21.319Z,49.99
2019-04-16T08:38:50.032Z,48.43
2019-04-16T08:41:21.391Z,49.52
2019-04-16T08:43:49.482Z,49.36
2019-04-16T08:46:18.201Z,48.92
2019-04-16T08:48:49.329Z,49.81
2019-04-16T08:51:29.697Z,47.11
2019-04-16T08:53:48.113Z,48.87
2019-04-16T08:56:16.833Z,47.66
2019-04-16T08:58:45.668Z,45.94
2019-04-16T09:01:23.260Z,47.09
2019-04-16T09:03:49.047Z,46.43
2019-04-16T09:06:17.837Z,46.79
2019-04-16T09:08:54.542Z,46.04
2019-04-16T09:11:24.073Z,46.04
2019-04-16T09:13:58.038Z,46.24
2019-04-16T09:16:26.920Z,44.94
2019-04-16T09:19:00.434Z,44.73
2019-04-16T09:21:29.213Z,44.86
2019-04-16T09:24:15.775Z,44.58
2019-04-16T09:26:52.692Z,45.53
2019-04-16T09:29:45.447Z,45.12
2019-04-16T09:32:33.273Z,46.63
2019-04-16T09:35:18.417Z,44.19
2019-04-16T09:37:50.701Z,44.21
2019-04-16T09:40:44.974Z,44.34
2019-04-16T09:43:18.426Z,43.32
2019-04-16T09:45:47.957Z,44.54
2019-04-16T09:48:16.685Z,45.32
2019-04-16T09:50:47.816Z,43.35
2019-04-16T09:53:15.864Z,44.29
2019-04-16T09:55:47.466Z,43.44
2019-04-16T09:58:21.759Z,44.61
2019-04-16T10:01:18.278Z,44.07
2019-04-16T10:03:49.333Z,43.36
2019-04-16T10:06:18.145Z,43.62
2019-04-16T10:08:47.177Z,43.19
2019-04-16T10:11:18.538Z,43.20
2019-04-16T10:13:46.850Z,43.16
2019-04-16T10:16:15.590Z,42.68
2019-04-16T10:18:44.295Z,43.93
2019-04-16T10:21:18.757Z,41.96
2019-04-16T10:23:53.827Z,41.67
2019-04-16T10:26:22.587Z,43.02
2019-04-16T10:28:51.308Z,42.58
2019-04-16T10:31:20.305Z,41.51
2019-04-16T10:33:49.040Z,40.83
2019-04-16T10:36:17.763Z,41.87
2019-04-16T10:38:52.415Z,40.66
2019-04-16T10:41:29.223Z,42.04
2019-04-16T10:44:17.235Z,41.28
2019-04-16T10:47:04.980Z,41.36
2019-04-16T10:50:07.759Z,41.36
2019-04-16T10:53:13.713Z,39.16
2019-04-16T10:56:07.461Z,39.51
2019-04-16T10:59:04.086Z,40.53
2019-04-16T11:01:37.093Z,38.79
2019-04-16T11:04:13.911Z,38.69
2019-04-16T11:06:45.296Z,40.30
2019-04-16T11:09:14.109Z,40.06
2019-04-16T11:11:43.010Z,38.95
2019-04-16T11:14:12.106Z,39.55
2019-04-16T11:16:43.106Z,37.19
2019-04-16T11:19:12.381Z,37.17
2019-04-16T11:21:41.707Z,36.37
2019-04-16T11:24:10.451Z,36.97
2019-04-16T11:26:39.424Z,38.00
2019-04-16T11:29:08.719Z,36.14
2019-04-16T11:31:38.032Z,37.71
2019-04-16T11:34:07.764Z,38.82
2019-04-16T11:36:37.278Z,36.48
2019-04-16T11:39:09.112Z,39.96
2019-04-16T11:41:37.227Z,35.55
2019-04-16T11:44:15.238Z,35.72
2019-04-16T11:46:36.739Z,35.41
2019-04-16T11:49:05.611Z,35.32
2019-04-16T11:51:34.482Z,33.93
2019-04-16T11:54:03.222Z,36.14
2019-04-16T11:56:31.915Z,33.69
2019-04-16T11:59:00.960Z,34.33
2019-04-16T12:01:58.120Z,34.21
2019-04-16T12:04:59.014Z,35.74
2019-04-16T12:07:32.799Z,34.84
2019-04-16T12:10:19.414Z,33.51
2019-04-16T12:13:06.215Z,34.01
2019-04-16T12:15:54.352Z,34.10
2019-04-16T12:18:32.942Z,37.81
2019-04-16T12:21:08.048Z,34.08
2019-04-16T12:24:14.020Z,37.26
2019-04-16T12:27:11.309Z,35.35
2019-04-16T12:29:57.458Z,33.98
2019-04-16T12:32:52.647Z,35.11
2019-04-16T12:35:34.751Z,32.93
2019-04-16T12:38:12.004Z,32.43
2019-04-16T12:40:58.094Z,33.51
2019-04-16T12:43:35.834Z,34.11
2019-04-16T12:46:11.925Z,35.33
2019-04-16T12:48:58.892Z,33.77
2019-04-16T12:51:40.989Z,32.70
2019-04-16T12:54:28.892Z,34.73
2019-04-16T12:57:19.952Z,34.24
2019-04-16T13:00:19.737Z,32.42
2019-04-16T13:02:56.968Z,33.86
2019-04-16T13:05:32.318Z,31.85
2019-04-16T13:08:32.518Z,31.36
2019-04-16T13:11:23.157Z,33.70
2019-04-16T13:14:13.589Z,31.24
2019-04-16T13:16:59.804Z,30.66
2019-04-16T13:19:49.514Z,31.37
2019-04-16T13:22:19.941Z,29.97
2019-04-16T13:24:53.254Z,32.04
2019-04-16T13:27:24.387Z,35.18
2019-04-16T13:29:53.598Z,32.09
2019-04-16T13:32:22.519Z,32.01
2019-04-16T13:34:51.310Z,30.97
2019-04-16T13:37:20.004Z,32.56
2019-04-16T13:39:59.278Z,32.56
2019-04-16T13:42:26.064Z,32.33
2019-04-16T13:45:15.263Z,33.36
2019-04-16T13:47:30.358Z,32.14
2019-04-16T13:50:17.603Z,31.41
2019-04-16T13:52:47.156Z,33.87
2019-04-16T13:55:24.839Z,31.87
2019-04-16T13:58:02.915Z,30.74
2019-04-16T14:00:37.193Z,31.64
2019-04-16T14:03:09.984Z,31.39
2019-04-16T14:05:42.521Z,30.50
2019-04-16T14:08:09.298Z,31.19
2019-04-16T14:10:38.076Z,33.40
2019-04-16T14:13:12.133Z,30.61
2019-04-16T14:15:40.375Z,31.09
2019-04-16T14:18:07.998Z,32.17
2019-04-16T14:20:36.702Z,31.78
2019-04-16T14:23:05.782Z,31.53
2019-04-16T14:25:34.504Z,30.44
2019-04-16T14:28:03.752Z,32.74
2019-04-16T14:30:42.755Z,33.12
2019-04-16T14:33:12.205Z,33.41
2019-04-16T14:35:41.036Z,31.26
2019-04-16T14:38:09.725Z,31.62
2019-04-16T14:40:39.720Z,31.36
2019-04-16T14:43:08.861Z,31.25
2019-04-16T14:45:56.984Z,31.23
2019-04-16T14:48:11.835Z,31.24
2019-04-16T14:50:40.874Z,30.56
2019-04-16T14:53:09.637Z,31.89
2019-04-16T14:55:59.930Z,33.83
2019-04-16T14:58:43.252Z,30.69
2019-04-16T15:01:36.031Z,31.91
2019-04-16T15:04:23.847Z,33.93
2019-04-16T15:07:14.378Z,31.95
2019-04-16T15:10:04.960Z,33.62
2019-04-16T15:12:58.719Z,31.53
2019-04-16T15:15:34.532Z,31.67
2019-04-16T15:18:08.451Z,33.50
2019-04-16T15:20:47.648Z,33.01
2019-04-16T15:23:22.567Z,33.32
2019-04-16T15:26:01.801Z,32.18
2019-04-16T15:28:41.669Z,31.79
2019-04-16T15:31:15.939Z,31.45
2019-04-16T15:33:55.459Z,31.53
2019-04-16T15:36:28.114Z,32.13
2019-04-16T15:39:14.451Z,32.41
2019-04-16T15:42:05.633Z,32.09
2019-04-16T15:45:08.918Z,34.14
2019-04-16T15:48:09.127Z,33.22
2019-04-16T15:50:46.333Z,31.85
2019-04-16T15:53:38.774Z,30.92
2019-04-16T15:56:25.282Z,34.15
2019-04-16T15:59:25.045Z,31.80
2019-04-16T16:02:13.855Z,33.31
2019-04-16T16:04:47.259Z,31.80
2019-04-16T16:07:23.995Z,32.75
2019-04-16T16:09:59.595Z,31.49
2019-04-16T16:12:30.105Z,32.21
2019-04-16T16:14:58.840Z,31.63
2019-04-16T16:17:27.560Z,32.16
2019-04-16T16:19:56.608Z,32.11
2019-04-16T16:22:25.560Z,32.43
2019-04-16T16:24:54.382Z,32.05
2019-04-16T16:27:23.136Z,32.29
2019-04-16T16:29:51.811Z,33.85
2019-04-16T16:32:20.580Z,32.48
2019-04-16T16:34:49.554Z,32.27
2019-04-16T16:37:18.525Z,33.08
2019-04-16T16:39:47.471Z,32.36
2019-04-16T16:42:16.267Z,32.77
2019-04-16T16:44:44.947Z,33.13
2019-04-16T16:47:22.286Z,33.37
2019-04-16T16:49:51.006Z,33.65
2019-04-16T16:52:38.907Z,34.26
2019-04-16T16:55:11.035Z,34.35
2019-04-16T16:57:46.185Z,34.17
2019-04-16T17:00:33.510Z,34.34
2019-04-16T17:03:18.437Z,34.47
2019-04-16T17:05:47.649Z,34.92
2019-04-16T17:08:17.108Z,34.78
2019-04-16T17:10:45.871Z,34.99
2019-04-16T17:13:18.565Z,36.27
2019-04-16T17:15:45.103Z,36.54
2019-04-16T17:18:13.842Z,35.68
2019-04-16T17:20:42.785Z,35.84
2019-04-16T17:23:16.434Z,36.33
2019-04-16T17:25:42.009Z,36.78
2019-04-16T17:28:10.742Z,37.08
2019-04-16T17:30:39.424Z,37.11
2019-04-16T17:33:08.215Z,36.53
2019-04-16T17:35:37.306Z,36.52
2019-04-16T17:38:07.179Z,37.08
2019-04-16T17:40:58.729Z,38.04
2019-04-16T17:43:59.911Z,37.72
2019-04-16T17:46:29.419Z,37.92
2019-04-16T17:49:16.184Z,37.97
2019-04-16T17:51:59.037Z,37.67
2019-04-16T17:54:34.594Z,37.83
2019-04-16T17:57:14.224Z,37.90
2019-04-16T17:59:54.093Z,38.06
2019-04-16T18:02:40.823Z,38.85
2019-04-16T18:05:34.706Z,38.84
2019-04-16T18:08:34.782Z,38.60
2019-04-16T18:11:31.644Z,38.89
2019-04-16T18:14:13.078Z,38.80
2019-04-16T18:16:59.352Z,38.84
2019-04-16T18:19:47.109Z,39.38
2019-04-16T18:22:22.134Z,39.24
2019-04-16T18:25:13.562Z,39.20
2019-04-16T18:27:52.419Z,39.26
2019-04-16T18:30:37.426Z,39.92
2019-04-16T18:33:37.082Z,39.06
2019-04-16T18:36:18.912Z,39.63
2019-04-16T18:39:05.876Z,39.71
2019-04-16T18:41:45.879Z,39.09
2019-04-16T18:44:34.489Z,39.16
2019-04-16T18:47:21.056Z,39.28
2019-04-16T18:49:52.423Z,39.50
2019-04-16T18:52:21.148Z,39.09
2019-04-16T18:54:50.015Z,39.08
2019-04-16T18:57:19.035Z,38.97
2019-04-16T18:59:47.932Z,39.10
2019-04-16T19:02:16.993Z,39.13
2019-04-16T19:04:45.763Z,39.53
2019-04-16T19:07:14.471Z,39.27
2019-04-16T19:09:43.252Z,39.06
2019-04-16T19:12:12.639Z,39.07
2019-04-16T19:14:41.355Z,39.05
2019-04-16T19:17:10.633Z,40.03
2019-04-16T19:19:44.510Z,39.14
2019-04-16T19:22:10.219Z,39.10
2019-04-16T19:24:38.940Z,39.04
2019-04-16T19:27:07.691Z,38.94
2019-04-16T19:29:37.142Z,38.28
2019-04-16T19:32:06.094Z,39.49
2019-04-16T19:34:35.237Z,39.22
2019-04-16T19:37:05.077Z,38.68
2019-04-16T19:39:33.799Z,39.26
2019-04-16T19:42:02.514Z,38.73
2019-04-16T19:44:33.725Z,39.10
2019-04-16T19:47:02.661Z,38.97
2019-04-16T19:49:31.376Z,39.96
2019-04-16T19:52:00.051Z,38.88
2019-04-16T19:54:31.670Z,38.67
2019-04-16T19:57:00.460Z,38.68
2019-04-16T19:59:29.238Z,39.46
2019-04-16T20:01:59.736Z,39.58
2019-04-16T20:04:28.414Z,38.96
2019-04-16T20:07:01.153Z,39.67
2019-04-16T20:09:28.105Z,39.35
2019-04-16T20:11:57.076Z,39.67
2019-04-16T20:14:25.801Z,39.79
2019-04-16T20:16:54.498Z,39.64
2019-04-16T20:19:23.515Z,39.66
2019-04-16T20:21:52.236Z,40.43
2019-04-16T20:24:22.501Z,39.84
2019-04-16T20:26:51.701Z,39.02
2019-04-16T20:29:20.423Z,39.83
2019-04-16T20:31:49.114Z,39.21
2019-04-16T20:34:18.434Z,39.96
2019-04-16T20:36:47.182Z,39.25
2019-04-16T20:39:17.083Z,39.51
2019-04-16T20:41:52.767Z,39.20
2019-04-16T20:44:17.943Z,39.74
2019-04-16T20:46:46.711Z,38.41
2019-04-16T20:49:16.874Z,38.85
2019-04-16T20:51:46.407Z,38.79
2019-04-16T20:54:15.091Z,39.30
2019-04-16T20:56:43.811Z,39.56
2019-04-16T20:59:12.794Z,39.23
2019-04-16T21:01:41.779Z,38.86
2019-04-16T21:04:10.478Z,39.44
2019-04-16T21:06:41.850Z,39.31
2019-04-16T21:09:09.891Z,39.69
2019-04-16T21:11:41.020Z,40.13
2019-04-16T21:14:09.026Z,40.11
2019-04-16T21:16:37.986Z,39.98
2019-04-16T21:19:21.710Z,39.49
2019-04-16T21:21:38.154Z,39.26
2019-04-16T21:24:08.352Z,39.49
2019-04-16T21:26:37.822Z,40.11
2019-04-16T21:29:14.417Z,40.35
2019-04-16T21:31:46.966Z,39.42
2019-04-16T21:34:29.653Z,39.68
2019-04-16T21:37:11.682Z,39.41
2019-04-16T21:39:51.362Z,39.47
2019-04-16T21:42:18.718Z,39.42
2019-04-16T21:44:47.451Z,39.10
2019-04-16T21:47:16.178Z,39.10
2019-04-16T21:49:45.917Z,39.58
2019-04-16T21:52:14.810Z,39.45
2019-04-16T21:54:43.590Z,39.45
2019-04-16T21:57:13.552Z,39.68
2019-04-16T21:59:42.920Z,39.68
2019-04-16T22:02:17.292Z,40.07
2019-04-16T22:04:47.054Z,39.62
2019-04-16T22:07:15.752Z,39.15
2019-04-16T22:09:44.468Z,39.73
2019-04-16T22:12:15.429Z,39.73
2019-04-16T22:14:43.679Z,41.05
2019-04-16T22:17:12.466Z,39.51
2019-04-16T22:19:53.218Z,39.51
2019-04-16T22:22:15.003Z,39.26
2019-04-16T22:24:42.300Z,39.38
2019-04-16T22:27:11.000Z,39.38
2019-04-16T22:29:39.700Z,39.18
2019-04-16T22:32:08.796Z,39.18
2019-04-16T22:34:38.820Z,39.28
2019-04-16T22:37:07.964Z,39.28
2019-04-16T22:43:06.197Z,39.38
2019-04-16T22:45:39.809Z,40.07
2019-04-16T22:48:08.804Z,40.66
2019-04-16T22:50:38.663Z,40.66
2019-04-16T22:53:07.802Z,39.85
2019-04-16T22:55:36.437Z,40.26
2019-04-16T22:58:05.493Z,39.73
2019-04-16T23:00:44.491Z,39.82
2019-04-16T23:03:16.641Z,39.44
2019-04-16T23:05:45.039Z,39.72
2019-04-16T23:08:13.741Z,39.29
2019-04-16T23:10:42.510Z,39.40
2019-04-16T23:13:11.214Z,39.26
2019-04-16T23:15:40.790Z,39.26
2019-04-16T23:18:09.804Z,39.04
2019-04-16T23:20:40.637Z,40.10
2019-04-16T23:23:09.649Z,39.15
2019-04-16T23:25:38.868Z,39.43
2019-04-16T23:28:10.972Z,39.33
2019-04-16T23:30:38.560Z,39.33
2019-04-16T23:33:07.647Z,39.59
2019-04-16T23:35:43.180Z,39.45
2019-04-16T23:38:07.050Z,39.39
2019-04-16T23:40:36.058Z,39.17
2019-04-16T23:43:21.913Z,39.17
2019-04-16T23:46:10.286Z,38.86
2019-04-16T23:48:51.023Z,38.86
2019-04-16T23:51:28.707Z,38.52
2019-04-16T23:54:20.566Z,38.97
2019-04-16T23:57:05.400Z,38.38
2019-04-16T23:59:42.744Z,38.34
